Аэропорт: Игнатьево. Благовещенск

ICAO: UHBB

METAR:
2024-04-22 21:30:00
UHBB 222130Z 21004MPS 9999 FEW033 07/05 Q1007 R18L/090062 NOSIG RMK QFE740/0987
TAF:
2024-04-22 19:41:00
TAF UHBB 221941Z 2221/2321 18005G10MPS 9999 SCT030CB 
  TEMPO 2223/2309 22007G14MPS